Time;durP1;ratioP1;P1;durP2;ratioP2;P2;SDS_P1;SDS_P2;PMS_P1;PMS_P2;Temp;Humidity;BMP_temperature;BMP_pressure;BME280_temperature;BME280_humidity;BME280_pressure;Samples;Min_cycle;Max_cycle;Signal;HPM_P1;HPM_P2
2022/06/29 00:02:14;;;;;;;27.63;9.53;;;19.00;37.20;;;;;;4997284;28;20488;-65
2022/06/29 00:04:41;;;;;;;26.90;9.13;;;19.00;36.50;;;;;;4996073;28;20830;-66
2022/06/29 00:07:08;;;;;;;28.57;9.37;;;19.10;36.70;;;;;;4992096;28;20460;-65
2022/06/29 00:09:34;;;;;;;26.53;7.83;;;19.00;36.50;;;;;;5000363;28;20463;-65
2022/06/29 00:12:01;;;;;;;29.17;9.13;;;19.00;36.50;;;;;;4996943;28;20464;-66
2022/06/29 00:14:28;;;;;;;28.80;10.40;;;19.00;36.60;;;;;;4994102;28;20486;-66
2022/06/29 00:16:56;;;;;;;29.67;9.60;;;19.00;36.50;;;;;;4995042;28;20846;-66
2022/06/29 00:19:23;;;;;;;28.20;9.13;;;19.00;36.70;;;;;;4997842;28;20575;-66
2022/06/29 00:21:49;;;;;;;27.93;9.40;;;19.00;36.70;;;;;;4999824;28;20484;-66
2022/06/29 00:24:17;;;;;;;26.70;9.23;;;19.00;36.70;;;;;;5000122;28;20487;-63
2022/06/29 00:26:44;;;;;;;27.20;8.87;;;19.00;36.90;;;;;;4993837;28;20468;-65
2022/06/29 00:29:11;;;;;;;28.80;9.17;;;19.00;36.80;;;;;;4990067;28;20461;-66
2022/06/29 00:31:37;;;;;;;28.70;10.27;;;19.10;36.90;;;;;;5000950;28;20487;-66
2022/06/29 00:34:06;;;;;;;26.70;8.73;;;19.10;36.90;;;;;;4997994;28;20494;-66
2022/06/29 00:36:32;;;;;;;28.20;9.90;;;19.10;36.80;;;;;;4995247;28;20842;-64
2022/06/29 00:38:59;;;;;;;28.13;9.67;;;19.10;37.10;;;;;;4992624;28;20465;-66
2022/06/29 00:41:26;;;;;;;29.33;9.90;;;19.10;37.00;;;;;;4994505;28;20495;-64
2022/06/29 00:43:52;;;;;;;28.80;9.17;;;19.20;36.90;;;;;;5001447;28;20480;-64
2022/06/29 00:46:19;;;;;;;28.87;9.60;;;19.20;36.90;;;;;;4996885;28;20869;-64
2022/06/29 00:48:46;;;;;;;28.97;9.80;;;19.20;36.60;;;;;;5002378;28;20461;-64
2022/06/29 00:51:18;;;;;;;29.93;10.20;;;19.30;36.80;;;;;;5004992;28;20482;-66
2022/06/29 00:53:49;;;;;;;26.70;8.90;;;19.20;37.00;;;;;;4994127;28;20496;-66
2022/06/29 00:56:19;;;;;;;27.97;10.63;;;19.20;37.30;;;;;;4994499;28;20459;-67
2022/06/29 00:58:47;;;;;;;29.80;9.67;;;19.20;37.90;;;;;;5000269;28;20464;-64
2022/06/29 01:01:15;;;;;;;29.93;9.40;;;19.20;37.60;;;;;;5003562;28;20483;-66
2022/06/29 01:03:42;;;;;;;29.97;10.20;;;19.20;38.20;;;;;;4993651;28;20487;-66
2022/06/29 01:06:09;;;;;;;30.53;10.17;;;19.10;37.60;;;;;;4989975;28;20468;-66
2022/06/29 01:08:37;;;;;;;31.00;11.50;;;19.00;37.70;;;;;;4998878;28;20455;-66
2022/06/29 01:11:04;;;;;;;30.63;10.50;;;19.00;37.70;;;;;;4997148;28;20543;-66
2022/06/29 01:13:30;;;;;;;29.80;10.70;;;19.00;37.50;;;;;;4997029;28;20488;-66
2022/06/29 01:15:57;;;;;;;31.30;10.63;;;19.00;37.50;;;;;;5003866;28;20473;-66
2022/06/29 01:18:24;;;;;;;32.03;11.13;;;18.90;37.30;;;;;;4999416;28;20465;-66
2022/06/29 01:20:51;;;;;;;29.43;10.23;;;18.90;37.50;;;;;;5004185;28;20457;-66
2022/06/29 01:23:19;;;;;;;30.03;10.20;;;18.90;37.70;;;;;;4997363;28;20464;-66
2022/06/29 01:25:50;;;;;;;32.50;10.63;;;18.90;37.60;;;;;;5003293;28;20456;-66
2022/06/29 01:28:16;;;;;;;31.50;11.83;;;18.90;37.70;;;;;;4995723;28;20507;-66
2022/06/29 01:30:43;;;;;;;31.80;9.93;;;18.90;37.50;;;;;;4994727;28;20476;-67
2022/06/29 01:33:10;;;;;;;29.57;9.40;;;18.90;37.50;;;;;;4992205;28;20468;-66
2022/06/29 01:35:37;;;;;;;30.70;11.03;;;18.90;37.50;;;;;;4994301;28;20499;-66
2022/06/29 01:38:03;;;;;;;30.00;10.80;;;18.80;37.60;;;;;;4997332;28;20475;-66
2022/06/29 01:40:32;;;;;;;30.23;10.47;;;18.70;37.60;;;;;;4999259;28;20479;-65
2022/06/29 01:42:58;;;;;;;28.83;9.80;;;18.70;37.70;;;;;;4990522;28;20461;-65
2022/06/29 01:45:25;;;;;;;32.67;10.83;;;18.70;37.60;;;;;;4996374;28;20485;-66
2022/06/29 01:47:52;;;;;;;32.10;12.17;;;18.70;37.80;;;;;;4999802;28;20467;-66
2022/06/29 01:50:19;;;;;;;32.77;14.00;;;18.70;37.90;;;;;;4997436;28;20556;-65
2022/06/29 01:52:45;;;;;;;30.73;12.00;;;18.70;38.00;;;;;;4990536;28;20468;-66
2022/06/29 01:55:12;;;;;;;31.20;12.33;;;18.70;37.90;;;;;;4996918;28;20503;-66
2022/06/29 01:57:41;;;;;;;32.47;13.67;;;18.70;38.10;;;;;;4992792;28;20467;-65
2022/06/29 02:00:09;;;;;;;33.67;12.77;;;18.70;38.10;;;;;;4997279;28;20463;-66
2022/06/29 02:02:35;;;;;;;30.10;12.37;;;18.70;38.00;;;;;;4993976;28;20483;-65
2022/06/29 02:05:02;;;;;;;30.73;12.63;;;18.70;38.20;;;;;;5009279;28;20473;-66
2022/06/29 02:07:29;;;;;;;33.33;11.70;;;18.70;38.20;;;;;;4997115;28;20842;-64
2022/06/29 02:09:56;;;;;;;29.43;10.47;;;18.60;38.30;;;;;;5004021;28;20478;-66
2022/06/29 02:12:23;;;;;;;29.80;10.83;;;18.60;38.20;;;;;;4993726;28;20471;-65
2022/06/29 02:14:51;;;;;;;29.60;10.90;;;18.50;38.90;;;;;;4999056;28;20499;-65
2022/06/29 02:17:19;;;;;;;31.63;12.20;;;18.50;39.00;;;;;;4992902;28;20459;-66
2022/06/29 02:19:46;;;;;;;30.10;11.30;;;18.50;38.60;;;;;;5002979;28;20460;-65
2022/06/29 02:22:13;;;;;;;29.90;10.73;;;18.50;38.70;;;;;;4995313;28;20508;-66
2022/06/29 02:24:39;;;;;;;31.37;10.90;;;18.40;38.70;;;;;;4993298;28;20476;-65
2022/06/29 02:27:06;;;;;;;30.47;11.80;;;18.40;38.60;;;;;;4995923;28;20460;-65
2022/06/29 02:29:33;;;;;;;30.10;11.20;;;18.40;38.60;;;;;;4999828;28;21004;-65
2022/06/29 02:34:46;;;;;;;33.17;13.07;;;18.40;39.10;;;;;;4993662;28;20639;-66
2022/06/29 02:37:13;;;;;;;28.97;10.33;;;18.40;39.60;;;;;;4996100;28;20460;-66
2022/06/29 02:39:42;;;;;;;30.73;10.50;;;18.50;39.50;;;;;;4999199;28;20461;-66
2022/06/29 02:42:09;;;;;;;32.50;11.77;;;18.50;39.70;;;;;;5000108;28;20893;-66
2022/06/29 02:44:36;;;;;;;32.90;11.90;;;18.50;39.60;;;;;;5003183;28;20483;-66
2022/06/29 02:47:05;;;;;;;32.07;11.00;;;18.40;39.80;;;;;;4993032;28;20459;-65
2022/06/29 02:49:32;;;;;;;37.67;11.00;;;18.40;39.70;;;;;;4996248;28;20468;-65
2022/06/29 02:51:58;;;;;;;33.77;10.73;;;18.50;39.60;;;;;;4997192;28;20456;-66
2022/06/29 02:54:25;;;;;;;30.90;10.90;;;18.50;39.60;;;;;;4992925;28;20488;-65
2022/06/29 02:56:53;;;;;;;34.53;11.43;;;18.50;39.80;;;;;;5001614;28;20470;-65
2022/06/29 02:59:20;;;;;;;29.80;10.10;;;18.50;39.90;;;;;;4993594;28;20464;-65
2022/06/29 03:01:47;;;;;;;28.57;10.40;;;18.50;39.90;;;;;;4995474;28;20886;-65
2022/06/29 03:04:16;;;;;;;33.00;10.00;;;18.50;40.00;;;;;;4998227;28;20476;-65
2022/06/29 03:06:42;;;;;;;33.07;10.37;;;18.50;40.20;;;;;;5000469;28;20459;-66
2022/06/29 03:09:09;;;;;;;30.33;11.03;;;18.50;40.40;;;;;;4988709;28;20492;-65
2022/06/29 03:11:36;;;;;;;29.10;10.47;;;18.50;40.10;;;;;;4992053;28;20464;-66
2022/06/29 03:14:03;;;;;;;31.70;11.30;;;18.50;40.20;;;;;;4992001;28;20500;-66
2022/06/29 03:16:30;;;;;;;30.47;9.80;;;18.60;41.10;;;;;;4995457;28;20554;-66
2022/06/29 03:18:57;;;;;;;28.83;9.30;;;18.70;41.00;;;;;;4993833;28;20901;-65
2022/06/29 03:21:25;;;;;;;29.57;10.57;;;18.70;40.80;;;;;;5004581;28;20461;-66
2022/06/29 03:23:52;;;;;;;30.03;9.53;;;18.70;41.30;;;;;;4993862;28;20483;-65
2022/06/29 03:26:19;;;;;;;32.60;11.03;;;18.80;40.60;;;;;;4993489;28;20457;-65
2022/06/29 03:28:47;;;;;;;31.60;11.23;;;18.80;40.20;;;;;;4992977;28;20464;-65
2022/06/29 03:31:14;;;;;;;37.27;12.27;;;18.80;40.20;;;;;;5001935;28;20530;-66
2022/06/29 03:33:41;;;;;;;36.30;14.37;;;18.80;39.90;;;;;;5001613;28;20494;-67
2022/06/29 03:36:08;;;;;;;35.93;15.00;;;18.80;40.10;;;;;;4992753;28;20472;-65
2022/06/29 03:38:36;;;;;;;39.30;16.23;;;18.90;39.90;;;;;;4997760;28;20463;-66
2022/06/29 03:41:04;;;;;;;35.80;15.50;;;18.90;39.90;;;;;;4999015;28;20471;-66
2022/06/29 03:43:31;;;;;;;35.90;15.57;;;18.90;39.70;;;;;;4997995;28;20904;-65
2022/06/29 03:45:58;;;;;;;37.23;15.70;;;18.80;39.40;;;;;;4994390;28;20878;-66
2022/06/29 03:48:25;;;;;;;36.83;16.60;;;18.80;39.60;;;;;;4993023;28;20500;-64
2022/06/29 03:50:51;;;;;;;38.17;15.97;;;18.80;39.60;;;;;;5000421;28;20456;-65
2022/06/29 03:53:18;;;;;;;36.90;15.17;;;18.80;39.70;;;;;;4996146;28;20464;-65
2022/06/29 03:55:46;;;;;;;35.97;16.70;;;18.80;39.40;;;;;;5003802;28;20488;-64
2022/06/29 03:58:13;;;;;;;34.17;15.60;;;18.80;39.50;;;;;;4993557;28;20475;-66
2022/06/29 04:00:40;;;;;;;37.43;17.17;;;18.80;39.50;;;;;;5003978;28;20474;-65
2022/06/29 04:03:06;;;;;;;38.00;16.43;;;18.80;39.50;;;;;;4999250;28;20477;-66
2022/06/29 04:05:33;;;;;;;35.87;17.53;;;18.80;39.30;;;;;;5006921;28;20483;-66
2022/06/29 04:08:00;;;;;;;34.90;16.20;;;18.70;39.50;;;;;;4999394;28;20498;-66
2022/06/29 04:10:27;;;;;;;35.33;15.77;;;18.70;39.60;;;;;;4997937;28;21159;-66
2022/06/29 04:12:55;;;;;;;34.60;16.00;;;18.80;39.40;;;;;;4992489;28;20483;-64
2022/06/29 04:15:22;;;;;;;35.43;16.30;;;18.80;39.40;;;;;;4997597;28;21009;-66
2022/06/29 04:17:48;;;;;;;34.70;15.13;;;18.70;39.40;;;;;;4997053;28;21025;-67
2022/06/29 04:22:56;;;;;;;32.53;14.50;;;18.70;39.30;;;;;;4993169;28;20458;-64
2022/06/29 04:25:22;;;;;;;35.83;17.10;;;18.70;39.20;;;;;;4993613;28;20861;-64
2022/06/29 04:27:49;;;;;;;35.70;15.93;;;18.70;39.60;;;;;;4998713;28;20478;-64
2022/06/29 04:30:17;;;;;;;33.93;15.07;;;18.70;39.70;;;;;;4996580;28;20455;-64
2022/06/29 04:32:44;;;;;;;34.83;17.50;;;18.60;39.80;;;;;;5000404;28;20464;-64
2022/06/29 04:35:10;;;;;;;34.27;15.70;;;18.60;39.90;;;;;;4996300;28;21169;-63
2022/06/29 04:37:37;;;;;;;39.73;17.30;;;18.60;40.00;;;;;;4993453;28;20470;-63
2022/06/29 04:40:05;;;;;;;36.83;18.03;;;18.50;40.20;;;;;;4996536;28;20475;-63
2022/06/29 04:42:32;;;;;;;34.27;16.07;;;18.50;40.20;;;;;;5003589;28;20471;-63
2022/06/29 04:44:58;;;;;;;37.60;17.63;;;18.60;40.10;;;;;;4998352;28;20479;-64
2022/06/29 04:47:26;;;;;;;36.43;17.50;;;18.60;40.10;;;;;;5001830;28;21053;-64
2022/06/29 04:49:53;;;;;;;37.57;18.23;;;18.60;40.20;;;;;;5005268;28;20814;-63
2022/06/29 04:52:20;;;;;;;40.40;18.30;;;18.60;40.30;;;;;;5000916;28;20478;-63
2022/06/29 04:54:47;;;;;;;36.63;18.10;;;18.70;39.90;;;;;;4999122;28;20623;-64
2022/06/29 04:57:13;;;;;;;40.10;18.47;;;18.70;39.90;;;;;;4993549;28;20480;-62
2022/06/29 04:59:40;;;;;;;37.20;18.63;;;18.80;40.20;;;;;;4998926;28;20517;-62
2022/06/29 05:02:07;;;;;;;37.53;17.77;;;18.80;40.20;;;;;;4997172;28;20480;-60
2022/06/29 05:04:35;;;;;;;40.03;19.90;;;18.80;40.20;;;;;;4998369;28;20493;-61
2022/06/29 05:07:02;;;;;;;34.53;16.60;;;18.80;40.50;;;;;;4996800;28;20495;-64
2022/06/29 05:09:28;;;;;;;40.50;18.73;;;18.80;40.40;;;;;;4999755;28;20460;-62
2022/06/29 05:11:55;;;;;;;38.30;17.67;;;18.90;40.40;;;;;;4996552;28;20966;-62
2022/06/29 05:14:22;;;;;;;36.87;17.43;;;18.90;40.40;;;;;;4998188;28;20488;-62
2022/06/29 05:16:49;;;;;;;36.30;17.10;;;18.90;40.50;;;;;;4999816;28;20471;-61
2022/06/29 05:19:15;;;;;;;34.13;16.43;;;19.00;40.40;;;;;;4996769;28;20962;-62
2022/06/29 05:21:43;;;;;;;37.10;17.20;;;19.10;40.40;;;;;;4999063;28;20467;-62
2022/06/29 05:24:10;;;;;;;39.93;17.90;;;19.10;40.10;;;;;;5000448;28;20480;-65
2022/06/29 05:26:37;;;;;;;37.10;17.10;;;19.20;39.90;;;;;;4992035;28;20475;-64
2022/06/29 05:29:04;;;;;;;35.20;16.80;;;19.30;39.90;;;;;;4996992;28;20514;-64
2022/06/29 05:31:31;;;;;;;37.40;16.57;;;19.40;39.80;;;;;;4998701;28;20700;-63
2022/06/29 05:36:40;;;;;;;38.23;15.30;;;19.50;40.10;;;;;;5005003;28;21044;-66
2022/06/29 05:39:08;;;;;;;35.90;15.90;;;19.60;39.80;;;;;;5008152;28;20456;-65
2022/06/29 05:41:35;;;;;;;33.57;15.33;;;19.70;39.80;;;;;;5008583;28;20462;-64
2022/06/29 05:44:04;;;;;;;35.40;15.27;;;19.80;39.70;;;;;;5008702;28;20486;-66
2022/06/29 05:46:40;;;;;;;35.17;14.90;;;20.00;39.80;;;;;;5009321;28;21040;-66
2022/06/29 05:49:07;;;;;;;33.07;13.80;;;20.30;39.50;;;;;;5008782;28;20485;-64
2022/06/29 05:51:34;;;;;;;34.20;13.33;;;20.50;38.50;;;;;;5008499;28;20464;-68
2022/06/29 05:54:01;;;;;;;34.70;13.63;;;20.70;37.90;;;;;;5006100;28;20498;-64
2022/06/29 05:56:29;;;;;;;43.13;15.83;;;20.80;37.10;;;;;;5005750;28;21070;-66
2022/06/29 05:58:56;;;;;;;34.43;14.30;;;21.00;36.60;;;;;;5006243;28;20462;-67
2022/06/29 06:01:23;;;;;;;34.93;15.23;;;21.00;36.20;;;;;;5007585;28;20478;-67
2022/06/29 06:03:49;;;;;;;36.47;14.47;;;21.00;35.90;;;;;;5007404;28;20491;-66
2022/06/29 06:06:16;;;;;;;36.27;14.70;;;21.00;35.60;;;;;;5007775;28;20463;-66
2022/06/29 06:08:43;;;;;;;33.83;14.47;;;21.00;35.50;;;;;;5008102;28;20463;-65
2022/06/29 06:11:10;;;;;;;32.80;14.17;;;20.90;35.30;;;;;;5007646;28;20466;-65
2022/06/29 06:13:38;;;;;;;34.03;15.00;;;20.90;35.30;;;;;;5008259;28;20480;-65
2022/06/29 06:16:05;;;;;;;34.50;14.53;;;20.90;35.20;;;;;;5008608;28;20483;-64
2022/06/29 06:18:32;;;;;;;37.53;16.57;;;20.90;35.10;;;;;;4999382;28;20469;-64
2022/06/29 06:20:59;;;;;;;32.90;14.20;;;21.00;35.10;;;;;;4988185;28;20461;-66
2022/06/29 06:23:26;;;;;;;36.83;15.13;;;21.00;35.10;;;;;;4999749;28;20483;-64
2022/06/29 06:25:52;;;;;;;35.80;14.20;;;21.00;35.00;;;;;;5007870;28;20456;-65
2022/06/29 06:28:19;;;;;;;33.10;14.10;;;21.10;34.90;;;;;;5008307;28;20455;-64
2022/06/29 06:30:47;;;;;;;36.40;15.20;;;21.20;34.70;;;;;;5007687;28;20471;-64
2022/06/29 06:33:14;;;;;;;32.83;13.50;;;21.20;34.50;;;;;;5008054;28;20475;-65
2022/06/29 06:35:41;;;;;;;34.30;15.00;;;21.30;34.20;;;;;;5008104;28;20491;-65
2022/06/29 06:38:07;;;;;;;39.47;13.53;;;21.30;34.20;;;;;;5009104;28;20471;-64
2022/06/29 06:43:19;;;;;;;36.03;14.83;;;21.40;33.90;;;;;;5007871;28;20602;-64
2022/06/29 06:45:47;;;;;;;34.70;13.20;;;21.50;33.00;;;;;;5010366;28;20456;-62
2022/06/29 06:48:13;;;;;;;36.67;13.60;;;21.50;32.50;;;;;;5012487;28;20459;-65
2022/06/29 06:50:40;;;;;;;33.90;15.13;;;21.50;32.60;;;;;;5012284;28;20459;-64
2022/06/29 06:53:07;;;;;;;34.50;13.73;;;21.40;32.70;;;;;;5012677;28;20479;-65
2022/06/29 06:55:34;;;;;;;35.73;13.77;;;21.30;32.50;;;;;;5011827;28;20483;-64
2022/06/29 06:58:01;;;;;;;33.10;14.53;;;21.30;32.80;;;;;;5009963;28;20571;-66
2022/06/29 07:00:28;;;;;;;32.40;13.13;;;21.20;33.10;;;;;;5011111;28;20554;-63
2022/06/29 07:02:57;;;;;;;32.80;13.30;;;21.20;33.40;;;;;;5013101;23;20891;-59
2022/06/29 07:05:25;;;;;;;32.93;13.70;;;21.20;33.80;;;;;;4963935;28;20461;-59
2022/06/29 07:07:52;;;;;;;31.93;12.70;;;21.20;33.90;;;;;;4972187;28;20465;-60
2022/06/29 07:10:19;;;;;;;34.70;13.70;;;21.20;33.60;;;;;;4955342;28;20518;-59
2022/06/29 07:12:45;;;;;;;34.10;13.63;;;21.30;33.60;;;;;;4952904;28;20482;-59
2022/06/29 07:15:12;;;;;;;35.40;14.60;;;21.40;33.60;;;;;;4952435;29;20486;-59
2022/06/29 07:17:39;;;;;;;36.27;15.23;;;21.50;33.30;;;;;;4952324;29;20843;-60
2022/06/29 07:20:09;;;;;;;36.27;16.00;;;21.70;33.00;;;;;;4951808;29;20466;-58
2022/06/29 07:22:36;;;;;;;37.87;17.10;;;21.80;32.60;;;;;;4953017;28;20537;-59
2022/06/29 07:25:03;;;;;;;36.80;17.50;;;21.90;32.60;;;;;;4952019;29;20947;-59
2022/06/29 07:27:29;;;;;;;34.60;16.27;;;22.00;32.20;;;;;;4952987;29;20462;-59
2022/06/29 07:29:56;;;;;;;34.47;14.60;;;22.10;32.00;;;;;;4950848;29;20474;-59
2022/06/29 07:32:23;;;;;;;33.70;15.77;;;22.20;31.90;;;;;;4951693;28;20501;-60
2022/06/29 07:34:50;;;;;;;35.37;16.20;;;22.30;31.70;;;;;;4952358;29;20655;-59
2022/06/29 07:37:18;;;;;;;33.60;14.43;;;22.30;31.10;;;;;;4952452;29;20462;-59
2022/06/29 07:39:45;;;;;;;37.20;15.60;;;22.40;31.30;;;;;;4952909;29;20466;-59
2022/06/29 07:42:12;;;;;;;36.43;15.50;;;22.50;31.20;;;;;;4950428;28;20485;-60
2022/06/29 07:44:38;;;;;;;38.27;14.40;;;22.50;31.00;;;;;;4952301;29;20467;-61
2022/06/29 07:47:05;;;;;;;32.83;14.63;;;22.50;31.20;;;;;;4952420;29;20454;-60
2022/06/29 07:49:32;;;;;;;36.80;15.27;;;22.60;31.20;;;;;;4952354;29;20467;-60
2022/06/29 07:51:59;;;;;;;33.40;13.90;;;22.60;30.90;;;;;;4950973;29;20477;-59
2022/06/29 07:54:27;;;;;;;38.87;17.20;;;22.70;31.00;;;;;;4952218;28;20862;-59
2022/06/29 07:56:54;;;;;;;35.13;15.50;;;22.80;30.70;;;;;;4952350;28;20487;-59
2022/06/29 08:00:04;;;;;;;34.30;14.90;;;22.90;30.30;;;;;;4951599;29;20466;-59
2022/06/29 08:02:31;;;;;;;33.50;14.87;;;23.00;29.90;;;;;;4949421;28;20486;-59
2022/06/29 08:04:59;;;;;;;35.10;15.33;;;23.10;29.50;;;;;;4952066;29;20473;-59
2022/06/29 08:07:26;;;;;;;31.83;13.13;;;23.20;29.20;;;;;;4951830;29;20806;-60
2022/06/29 08:09:55;;;;;;;34.17;12.70;;;23.20;28.90;;;;;;4938100;29;21003;-59
2022/06/29 08:12:22;;;;;;;35.27;14.07;;;23.40;28.50;;;;;;4938081;28;20477;-59
2022/06/29 08:14:49;;;;;;;33.77;12.97;;;23.50;28.20;;;;;;4951900;29;20466;-59
2022/06/29 08:17:16;;;;;;;34.20;13.37;;;23.60;27.50;;;;;;4952952;29;20478;-60
2022/06/29 08:19:43;;;;;;;33.53;13.23;;;23.70;27.20;;;;;;4952817;29;20465;-58
2022/06/29 08:22:09;;;;;;;32.60;13.50;;;23.80;27.00;;;;;;4951043;29;20469;-59
2022/06/29 08:24:36;;;;;;;33.47;13.10;;;24.10;27.10;;;;;;4952336;29;20466;-59
2022/06/29 08:27:05;;;;;;;31.97;11.50;;;24.20;26.30;;;;;;4951880;29;20462;-59
2022/06/29 08:29:31;;;;;;;33.03;11.30;;;24.40;26.00;;;;;;4952133;29;20916;-60
2022/06/29 08:31:58;;;;;;;30.70;11.80;;;24.50;25.70;;;;;;4951009;28;21002;-60
2022/06/29 08:34:26;;;;;;;33.63;11.80;;;24.70;25.30;;;;;;4950627;28;20490;-60
2022/06/29 08:36:52;;;;;;;30.47;10.57;;;24.80;24.20;;;;;;4951850;29;20513;-60
2022/06/29 08:39:19;;;;;;;34.03;9.90;;;25.00;24.00;;;;;;4952130;29;20483;-59
2022/06/29 08:41:46;;;;;;;31.23;9.93;;;25.20;23.50;;;;;;4951411;29;20847;-59
2022/06/29 08:44:14;;;;;;;30.73;9.97;;;25.40;23.00;;;;;;4951260;28;20486;-60
2022/06/29 08:46:41;;;;;;;30.87;9.77;;;25.50;22.30;;;;;;4950961;29;20462;-60
2022/06/29 08:49:08;;;;;;;31.77;10.40;;;25.60;21.60;;;;;;4951515;29;20458;-59
2022/06/29 08:51:35;;;;;;;30.83;9.90;;;25.60;21.30;;;;;;4951884;29;20465;-60
2022/06/29 08:54:05;;;;;;;31.63;10.37;;;25.70;21.30;;;;;;4951197;28;20486;-59
2022/06/29 08:56:33;;;;;;;30.57;9.30;;;25.90;21.10;;;;;;4950300;29;21092;-59
2022/06/29 08:59:03;;;;;;;33.83;9.77;;;26.00;20.50;;;;;;4951001;29;21029;-60
2022/06/29 09:01:31;;;;;;;29.33;8.90;;;26.20;20.70;;;;;;4950793;28;20481;-59
2022/06/29 09:03:58;;;;;;;30.13;8.07;;;26.40;20.10;;;;;;4951003;28;20494;-59
2022/06/29 09:06:25;;;;;;;28.97;7.07;;;26.60;19.60;;;;;;4949483;29;21196;-59
2022/06/29 09:08:51;;;;;;;28.37;6.40;;;26.70;18.80;;;;;;4950743;28;20459;-59
2022/06/29 09:11:23;;;;;;;30.10;7.93;;;26.90;18.60;;;;;;4950558;29;20474;-59
2022/06/29 09:14:09;;;;;;;30.03;7.07;;;27.10;18.60;;;;;;4951025;28;20500;-59
2022/06/29 09:16:55;;;;;;;28.27;6.40;;;27.00;18.30;;;;;;4951504;29;20490;-60
2022/06/29 09:19:25;;;;;;;26.93;6.60;;;26.80;17.30;;;;;;4951983;29;20501;-61
2022/06/29 09:21:54;;;;;;;27.80;7.10;;;26.80;17.70;;;;;;4950989;29;20443;-60
2022/06/29 09:24:23;;;;;;;27.80;7.27;;;27.00;18.00;;;;;;4950781;28;20478;-62
2022/06/29 09:26:51;;;;;;;27.40;6.70;;;27.20;16.80;;;;;;4950617;29;20515;-62
2022/06/29 09:29:23;;;;;;;28.40;7.07;;;27.30;16.70;;;;;;4951379;29;20462;-62
2022/06/29 09:32:15;;;;;;;28.00;7.00;;;27.30;16.80;;;;;;4949814;29;20474;-62
2022/06/29 09:34:44;;;;;;;27.40;6.70;;;27.20;17.00;;;;;;4951078;29;20466;-60
2022/06/29 09:37:13;;;;;;;28.57;7.23;;;27.40;17.60;;;;;;4950599;29;20482;-62
2022/06/29 09:39:42;;;;;;;28.93;5.90;;;27.90;16.80;;;;;;4951190;29;20474;-62
2022/06/29 09:42:10;;;;;;;34.13;7.60;;;28.50;16.30;;;;;;4951031;29;20458;-63
2022/06/29 09:44:37;;;;;;;29.27;6.23;;;29.00;14.90;;;;;;4949518;29;20469;-62
2022/06/29 09:47:06;;;;;;;27.00;6.53;;;29.10;14.30;;;;;;4950244;29;20490;-61
2022/06/29 09:49:36;;;;;;;27.77;6.70;;;28.80;13.70;;;;;;4948934;29;20470;-61
2022/06/29 09:52:05;;;;;;;28.70;6.67;;;28.40;14.20;;;;;;4950606;29;20455;-61
2022/06/29 09:54:36;;;;;;;29.80;6.73;;;28.10;14.80;;;;;;4947695;28;20471;-60
2022/06/29 09:57:04;;;;;;;29.60;8.17;;;27.80;15.20;;;;;;4949382;29;20549;-62
2022/06/29 10:02:39;;;;;;;28.63;6.90;;;27.60;15.80;;;;;;4950136;28;20469;-61
2022/06/29 10:05:09;;;;;;;28.03;7.10;;;27.60;16.60;;;;;;4950738;29;21042;-60
2022/06/29 10:07:38;;;;;;;29.20;7.73;;;27.50;16.10;;;;;;4948615;29;20455;-60
2022/06/29 10:10:08;;;;;;;27.80;7.47;;;27.50;16.40;;;;;;4950722;29;20461;-63
2022/06/29 10:15:38;;;;;;;30.10;7.70;;;27.50;15.70;;;;;;4917790;29;20458;-63
2022/06/29 10:18:15;;;;;;;28.20;7.47;;;27.60;15.90;;;;;;4948562;29;20977;-62
2022/06/29 10:20:46;;;;;;;28.40;6.80;;;27.60;15.80;;;;;;4948858;29;20450;-62
2022/06/29 10:23:43;;;;;;;27.83;7.30;;;27.50;16.00;;;;;;4950024;28;20478;-60
2022/06/29 10:26:46;;;;;;;28.40;6.80;;;27.50;16.00;;;;;;4949694;29;20815;-61
2022/06/29 10:29:31;;;;;;;30.60;8.70;;;27.50;16.20;;;;;;4930674;29;21121;-61
2022/06/29 10:32:17;;;;;;;29.10;9.13;;;27.70;16.10;;;;;;4936092;28;20530;-61
2022/06/29 10:37:31;;;;;;;32.37;9.17;;;28.50;15.00;;;;;;4948625;29;20469;-66
2022/06/29 10:40:01;;;;;;;34.50;9.80;;;28.90;14.50;;;;;;4950204;29;20931;-67
2022/06/29 10:45:24;;;;;;;31.97;8.90;;;29.30;13.20;;;;;;4949340;29;20529;-66
2022/06/29 10:48:13;;;;;;;31.13;8.60;;;29.30;13.00;;;;;;4948384;29;20976;-66
2022/06/29 10:50:41;;;;;;;29.10;8.33;;;29.30;12.80;;;;;;4940360;29;20454;-66
2022/06/29 10:53:11;;;;;;;30.77;8.13;;;29.20;13.20;;;;;;4949482;28;20485;-66
2022/06/29 10:55:39;;;;;;;28.93;8.23;;;29.10;13.30;;;;;;4949598;29;20469;-67
2022/06/29 10:58:06;;;;;;;28.83;7.50;;;28.90;13.00;;;;;;4949623;29;20482;-66
2022/06/29 11:00:35;;;;;;;28.70;7.90;;;28.90;13.50;;;;;;4948463;28;20467;-66
2022/06/29 11:03:10;;;;;;;29.33;7.50;;;29.00;13.20;;;;;;4947767;28;20486;-66
2022/06/29 11:12:01;;;;;;;27.70;6.83;;;28.90;13.30;;;;;;4949260;29;20469;-66
2022/06/29 11:13:58;;;;;;;29.17;7.07;;;28.80;13.20;;;;;;4947627;28;20509;-66
2022/06/29 11:16:39;;;;;;;27.93;7.03;;;28.90;13.60;;;;;;4948951;29;20698;-66
2022/06/29 11:19:06;;;;;;;29.67;7.27;;;29.00;13.80;;;;;;4946256;29;20463;-66
2022/06/29 11:21:33;;;;;;;27.20;6.73;;;29.20;13.70;;;;;;4947935;29;20498;-66
2022/06/29 11:24:05;;;;;;;26.70;6.13;;;29.30;13.20;;;;;;4948787;28;20490;-66
2022/06/29 11:26:35;;;;;;;30.40;7.67;;;29.60;13.00;;;;;;4949472;29;20458;-66
2022/06/29 11:29:03;;;;;;;27.90;6.77;;;29.80;12.10;;;;;;4949931;29;20462;-66
2022/06/29 11:31:30;;;;;;;29.50;6.30;;;29.90;11.80;;;;;;4948470;28;20553;-66
2022/06/29 11:33:57;;;;;;;27.33;6.70;;;29.90;11.80;;;;;;4952319;28;20481;-66
2022/06/29 11:36:29;;;;;;;28.57;6.97;;;29.90;11.60;;;;;;4951205;29;20509;-66
2022/06/29 11:38:57;;;;;;;28.47;7.50;;;29.70;11.80;;;;;;4951411;29;20450;-66
2022/06/29 11:43:03;;;;;;;28.17;6.80;;;29.60;11.80;;;;;;4949663;29;20472;-66
2022/06/29 11:44:24;;;;;;;27.97;7.10;;;29.40;11.90;;;;;;4935169;29;20475;-66
2022/06/29 11:46:52;;;;;;;27.83;7.00;;;29.30;12.10;;;;;;4951510;29;20801;-66
2022/06/29 11:49:36;;;;;;;26.47;7.00;;;29.30;12.40;;;;;;4951937;29;20455;-66
2022/06/29 11:52:05;;;;;;;27.77;7.87;;;29.50;12.70;;;;;;4950027;29;20765;-67
2022/06/29 11:54:37;;;;;;;28.10;7.27;;;29.80;12.30;;;;;;4951093;28;20494;-66
2022/06/29 11:57:10;;;;;;;27.23;6.80;;;30.00;12.40;;;;;;4947449;29;20501;-67
2022/06/29 11:59:39;;;;;;;27.33;7.40;;;30.10;12.20;;;;;;4948005;29;20827;-67
2022/06/29 12:02:06;;;;;;;28.50;7.53;;;30.00;12.00;;;;;;4946697;29;20486;-67
2022/06/29 12:04:35;;;;;;;26.90;6.10;;;29.90;11.50;;;;;;4948693;28;20490;-67
2022/06/29 12:07:04;;;;;;;28.03;6.50;;;29.70;11.30;;;;;;4948202;29;20931;-67
2022/06/29 12:09:31;;;;;;;27.53;7.17;;;29.60;11.70;;;;;;4949669;29;20477;-66
2022/06/29 12:11:58;;;;;;;28.77;7.40;;;29.60;11.60;;;;;;4947197;29;20470;-66
2022/06/29 12:14:26;;;;;;;27.50;7.00;;;29.60;11.10;;;;;;4949031;28;20483;-66
2022/06/29 12:16:53;;;;;;;27.67;7.30;;;29.60;11.50;;;;;;4949123;29;20486;-67
2022/06/29 12:19:20;;;;;;;27.27;6.70;;;29.40;11.80;;;;;;4947824;29;20462;-67
2022/06/29 12:21:46;;;;;;;29.07;6.03;;;29.30;11.80;;;;;;4938886;29;20472;-67
2022/06/29 12:24:13;;;;;;;27.70;6.53;;;29.30;12.20;;;;;;4946925;28;20496;-67
2022/06/29 12:26:40;;;;;;;27.60;6.27;;;29.30;12.20;;;;;;4944956;29;20454;-67
2022/06/29 12:29:07;;;;;;;26.50;6.53;;;29.40;11.90;;;;;;4950729;29;20466;-67
2022/06/29 12:31:38;;;;;;;28.73;5.80;;;29.50;11.70;;;;;;4950665;29;20474;-67
2022/06/29 12:34:04;;;;;;;27.87;5.67;;;29.70;11.70;;;;;;4950018;28;20490;-67
2022/06/29 12:36:31;;;;;;;26.00;5.20;;;29.80;11.60;;;;;;4950569;29;21030;-66
2022/06/29 12:38:58;;;;;;;27.73;5.80;;;29.70;11.20;;;;;;4951164;29;20805;-67
2022/06/29 12:41:25;;;;;;;28.27;5.77;;;29.70;10.90;;;;;;4950242;28;20463;-67
2022/06/29 12:43:51;;;;;;;27.23;5.57;;;29.80;10.80;;;;;;4947075;28;20521;-66
2022/06/29 12:46:18;;;;;;;29.90;5.60;;;29.80;10.50;;;;;;4951205;29;20951;-66
2022/06/29 12:48:46;;;;;;;29.00;4.60;;;29.80;10.20;;;;;;4949401;29;20458;-67
2022/06/29 12:51:13;;;;;;;25.80;5.00;;;30.00;10.90;;;;;;4950346;29;20469;-66
2022/06/29 12:53:40;;;;;;;27.20;4.93;;;30.10;10.70;;;;;;4950238;28;20478;-66
2022/06/29 12:56:07;;;;;;;26.83;5.30;;;30.20;10.70;;;;;;4949155;29;20467;-66
2022/06/29 12:58:34;;;;;;;25.50;4.73;;;30.10;10.10;;;;;;4951476;29;20485;-67
2022/06/29 13:01:02;;;;;;;27.33;5.30;;;30.00;10.60;;;;;;4949638;28;20557;-67
2022/06/29 13:03:29;;;;;;;26.23;5.20;;;29.90;10.50;;;;;;4950819;28;20496;-66
2022/06/29 13:05:57;;;;;;;29.10;5.30;;;29.80;10.30;;;;;;4949277;29;20470;-66